createdAt,value
2022-11-29T00:00:08.701Z,24.20
2022-11-29T00:02:40.094Z,22.35
2022-11-29T00:05:08.898Z,23.13
2022-11-29T00:07:38.918Z,23.73
2022-11-29T00:10:08.525Z,21.63
2022-11-29T00:12:37.251Z,23.00
2022-11-29T00:15:06.093Z,20.23
2022-11-29T00:17:35.034Z,22.67
2022-11-29T00:20:03.181Z,21.15
2022-11-29T00:22:32.889Z,21.92
2022-11-29T00:25:05.416Z,20.73
2022-11-29T00:27:34.099Z,23.67
2022-11-29T00:30:02.689Z,22.63
2022-11-29T00:32:31.868Z,23.30
2022-11-29T00:35:03.997Z,22.42
2022-11-29T00:37:34.349Z,22.98
2022-11-29T00:40:03.296Z,22.35
2022-11-29T00:42:32.515Z,23.55
2022-11-29T00:45:01.318Z,23.70
2022-11-29T00:47:29.742Z,23.85
2022-11-29T00:49:57.561Z,25.85
2022-11-29T00:52:27.098Z,23.10
2022-11-29T00:54:55.260Z,24.17
2022-11-29T00:57:22.915Z,22.92
2022-11-29T00:59:50.786Z,23.67
2022-11-29T01:02:19.523Z,25.88
2022-11-29T01:04:46.502Z,24.45
2022-11-29T01:07:13.231Z,25.85
2022-11-29T01:09:39.766Z,27.63
2022-11-29T01:12:06.571Z,25.83
2022-11-29T01:14:33.150Z,25.73
2022-11-29T01:16:59.702Z,24.05
2022-11-29T01:19:26.255Z,24.80
2022-11-29T01:21:52.845Z,25.90
2022-11-29T01:24:19.357Z,25.85
2022-11-29T01:26:45.919Z,25.63
2022-11-29T01:29:13.098Z,24.30
2022-11-29T01:31:39.676Z,29.08
2022-11-29T01:34:07.137Z,29.13
2022-11-29T01:36:35.273Z,29.42
2022-11-29T01:39:04.149Z,29.73
2022-11-29T01:41:33.173Z,31.60
2022-11-29T01:44:25.778Z,33.28
2022-11-29T01:46:54.550Z,29.25
2022-11-29T01:49:42.575Z,31.77
2022-11-29T01:52:16.399Z,29.15
2022-11-29T01:54:47.026Z,27.65
2022-11-29T01:57:14.382Z,28.88
2022-11-29T01:59:45.525Z,32.17
2022-11-29T02:02:40.168Z,31.65
2022-11-29T02:05:07.816Z,33.15
2022-11-29T02:07:34.493Z,30.33
2022-11-29T02:10:02.233Z,28.95
2022-11-29T02:12:50.591Z,30.48
2022-11-29T02:15:52.036Z,31.27
2022-11-29T02:18:46.672Z,30.70
2022-11-29T02:21:44.268Z,32.60
2022-11-29T02:24:28.811Z,33.05
2022-11-29T02:27:17.395Z,30.23
2022-11-29T02:30:07.675Z,34.42
2022-11-29T02:32:49.298Z,32.28
2022-11-29T02:35:28.509Z,33.60
2022-11-29T02:38:04.640Z,33.03
2022-11-29T02:40:59.821Z,33.00
2022-11-29T02:43:57.865Z,34.33
2022-11-29T02:46:51.553Z,33.20
2022-11-29T02:49:44.739Z,37.05
2022-11-29T02:52:50.214Z,29.23
2022-11-29T02:55:33.406Z,33.00
2022-11-29T02:58:16.725Z,33.60
2022-11-29T03:01:16.472Z,31.60
2022-11-29T03:04:00.867Z,30.88
2022-11-29T03:06:44.349Z,33.70
2022-11-29T03:09:42.771Z,30.95
2022-11-29T03:12:14.953Z,28.63
2022-11-29T03:14:47.612Z,28.13
2022-11-29T03:17:25.747Z,31.15
2022-11-29T03:20:16.969Z,29.13
2022-11-29T03:23:24.156Z,35.25
2022-11-29T03:25:57.284Z,32.85
2022-11-29T03:28:34.884Z,37.95
2022-11-29T03:31:05.871Z,28.30
2022-11-29T03:33:53.764Z,29.85
2022-11-29T03:36:29.056Z,31.17
2022-11-29T03:39:01.071Z,34.95
2022-11-29T03:41:36.578Z,25.88
2022-11-29T03:44:27.201Z,31.08
2022-11-29T03:47:02.142Z,25.40
2022-11-29T03:49:39.820Z,29.38
2022-11-29T03:52:42.188Z,26.33
2022-11-29T03:55:08.673Z,28.20
2022-11-29T03:58:04.876Z,27.95
2022-11-29T04:00:45.429Z,25.55
2022-11-29T04:03:25.572Z,25.70
2022-11-29T04:06:29.246Z,28.35
2022-11-29T04:09:46.891Z,28.25
2022-11-29T04:12:50.931Z,31.08
2022-11-29T04:15:29.645Z,29.50
2022-11-29T04:18:02.042Z,30.35
2022-11-29T04:20:50.412Z,29.65
2022-11-29T04:23:38.791Z,28.20
2022-11-29T04:26:35.022Z,27.08
2022-11-29T04:29:34.362Z,25.20
2022-11-29T04:32:26.662Z,28.88
2022-11-29T04:35:09.223Z,28.63
2022-11-29T04:38:00.056Z,26.83
2022-11-29T04:41:01.283Z,25.65
2022-11-29T04:44:05.177Z,27.95
2022-11-29T04:46:37.728Z,25.65
2022-11-29T04:49:42.118Z,25.00
2022-11-29T04:52:27.618Z,23.85
2022-11-29T04:55:08.076Z,24.45
2022-11-29T04:57:44.892Z,25.40
2022-11-29T05:00:19.929Z,24.58
2022-11-29T05:02:49.733Z,29.33
2022-11-29T05:05:46.332Z,25.85
2022-11-29T05:08:46.543Z,25.58
2022-11-29T05:11:26.291Z,18.92
2022-11-29T05:14:15.366Z,25.65
2022-11-29T05:17:12.862Z,17.30
2022-11-29T05:19:55.415Z,24.05
2022-11-29T05:22:34.266Z,21.95
2022-11-29T05:25:24.412Z,25.67
2022-11-29T05:28:02.501Z,27.42
2022-11-29T05:31:01.324Z,28.52
2022-11-29T05:33:55.596Z,24.88
2022-11-29T05:38:54.462Z,20.15
2022-11-29T05:41:45.460Z,22.40
2022-11-29T05:44:53.455Z,25.10
2022-11-29T05:47:31.556Z,22.13
2022-11-29T05:50:04.242Z,25.60
2022-11-29T05:52:43.921Z,21.15
2022-11-29T05:55:22.243Z,25.25
2022-11-29T05:58:03.222Z,21.92
2022-11-29T06:00:40.923Z,24.00
2022-11-29T06:03:17.820Z,21.42
2022-11-29T06:05:57.443Z,26.35
2022-11-29T06:08:47.808Z,25.73
2022-11-29T06:11:21.824Z,24.90
2022-11-29T06:14:00.133Z,27.67
2022-11-29T06:16:56.972Z,23.38
2022-11-29T06:19:42.312Z,27.02
2022-11-29T06:22:39.831Z,26.35
2022-11-29T06:25:24.230Z,25.80
2022-11-29T06:28:28.455Z,25.48
2022-11-29T06:31:08.513Z,29.20
2022-11-29T06:33:56.915Z,26.85
2022-11-29T06:36:31.704Z,24.85
2022-11-29T06:38:58.426Z,27.02
2022-11-29T06:41:25.350Z,23.63
2022-11-29T06:43:52.255Z,24.35
2022-11-29T06:46:37.468Z,22.73
2022-11-29T06:49:06.673Z,24.65
2022-11-29T06:51:44.200Z,25.27
2022-11-29T06:54:38.587Z,26.95
2022-11-29T06:57:31.456Z,21.23
2022-11-29T07:00:20.433Z,23.13
2022-11-29T07:03:34.497Z,25.60
2022-11-29T07:06:08.279Z,14.30
2022-11-29T07:11:01.587Z,19.30
2022-11-29T07:13:28.376Z,18.70
2022-11-29T07:15:54.872Z,19.77
2022-11-29T07:18:43.005Z,19.20
2022-11-29T07:21:35.492Z,22.05
2022-11-29T07:24:40.490Z,21.13
2022-11-29T07:27:10.578Z,21.20
2022-11-29T07:29:45.870Z,21.60
2022-11-29T07:32:44.643Z,22.73
2022-11-29T07:35:33.535Z,27.35
2022-11-29T07:38:10.105Z,30.95
2022-11-29T07:40:51.277Z,27.63
2022-11-29T07:43:36.161Z,25.00
2022-11-29T07:46:02.819Z,28.67
2022-11-29T07:48:29.330Z,27.83
2022-11-29T07:50:56.800Z,29.75
2022-11-29T07:53:23.889Z,31.00
2022-11-29T07:55:50.533Z,33.58
2022-11-29T07:58:19.613Z,57.72
2022-11-29T08:00:46.600Z,48.03
2022-11-29T08:03:13.220Z,153.73
2022-11-29T08:05:44.656Z,28.58
2022-11-29T08:08:11.126Z,43.08
2022-11-29T08:10:38.545Z,36.22
2022-11-29T08:13:05.081Z,50.97
2022-11-29T08:15:31.635Z,51.53
2022-11-29T08:17:58.250Z,37.20
2022-11-29T08:20:24.881Z,38.53
2022-11-29T08:22:55.964Z,58.55
2022-11-29T08:25:22.719Z,55.42
2022-11-29T08:27:49.508Z,59.10
2022-11-29T08:30:18.726Z,54.47
2022-11-29T08:32:51.145Z,42.95
2022-11-29T08:35:19.551Z,57.67
2022-11-29T08:37:46.084Z,34.63
2022-11-29T08:40:13.588Z,52.83
2022-11-29T08:42:40.149Z,48.80
2022-11-29T08:45:07.708Z,54.08
2022-11-29T08:47:37.168Z,44.00
2022-11-29T08:50:07.340Z,55.03
2022-11-29T08:52:54.730Z,49.35
2022-11-29T08:55:23.836Z,40.78
2022-11-29T08:57:51.482Z,56.83
2022-11-29T09:00:19.113Z,59.25
2022-11-29T09:02:45.725Z,52.28
2022-11-29T09:05:12.290Z,52.88
2022-11-29T09:07:39.307Z,60.05
2022-11-29T09:10:08.354Z,56.55
2022-11-29T09:12:36.432Z,51.22
2022-11-29T09:15:09.287Z,55.88
2022-11-29T09:17:36.171Z,52.88
2022-11-29T09:20:03.212Z,58.35
2022-11-29T09:22:29.821Z,52.10
2022-11-29T09:24:56.324Z,52.33
2022-11-29T09:27:22.897Z,58.63
2022-11-29T09:29:49.425Z,52.50
2022-11-29T09:32:16.033Z,48.05
2022-11-29T09:34:42.711Z,45.40
2022-11-29T09:37:09.308Z,48.53
2022-11-29T09:39:35.866Z,52.40
2022-11-29T09:42:23.348Z,45.08
2022-11-29T09:45:07.564Z,55.70
2022-11-29T09:47:52.550Z,47.58
2022-11-29T09:50:44.093Z,40.97
2022-11-29T09:53:29.432Z,44.35
2022-11-29T09:56:12.264Z,54.60
2022-11-29T09:59:05.681Z,42.03
2022-11-29T10:01:40.142Z,44.92
2022-11-29T10:04:14.441Z,43.08
2022-11-29T10:06:45.724Z,50.13
2022-11-29T10:09:24.335Z,50.35
2022-11-29T10:12:06.878Z,44.08
2022-11-29T10:14:42.854Z,41.55
2022-11-29T10:17:40.397Z,46.70
2022-11-29T10:20:17.839Z,45.78
2022-11-29T10:23:04.628Z,46.92
2022-11-29T10:25:42.059Z,49.38
2022-11-29T10:28:14.440Z,42.80
2022-11-29T10:30:42.619Z,44.05
2022-11-29T10:33:22.106Z,42.47
2022-11-29T10:35:52.768Z,33.90
2022-11-29T10:38:34.497Z,37.85
2022-11-29T10:41:08.315Z,35.00
2022-11-29T10:43:37.310Z,35.75
2022-11-29T10:46:04.820Z,38.65
2022-11-29T10:48:34.119Z,31.98
2022-11-29T10:51:01.556Z,27.27
2022-11-29T10:53:36.180Z,27.55
2022-11-29T10:56:08.401Z,25.88
2022-11-29T10:58:35.851Z,24.70
2022-11-29T11:01:07.766Z,30.95
2022-11-29T11:04:07.288Z,31.00
2022-11-29T11:06:56.661Z,32.50
2022-11-29T11:10:03.042Z,22.80
2022-11-29T11:12:32.399Z,27.98
2022-11-29T11:15:28.400Z,33.72
2022-11-29T11:18:00.907Z,23.20
2022-11-29T11:20:30.465Z,24.45
2022-11-29T11:23:05.391Z,25.60
2022-11-29T11:25:38.088Z,23.15
2022-11-29T11:28:22.087Z,26.13
2022-11-29T11:33:21.825Z,24.00
2022-11-29T11:36:00.788Z,21.77
2022-11-29T11:38:27.600Z,27.50
2022-11-29T11:41:21.194Z,24.83
2022-11-29T11:43:59.201Z,20.75
2022-11-29T11:47:01.932Z,26.15
2022-11-29T11:49:45.879Z,15.52
2022-11-29T11:54:59.101Z,18.08
2022-11-29T11:57:26.654Z,18.10
2022-11-29T11:59:55.721Z,12.77
2022-11-29T12:02:48.367Z,15.90
2022-11-29T12:05:19.256Z,13.52
2022-11-29T12:08:08.692Z,13.20
2022-11-29T12:10:39.860Z,11.38
2022-11-29T12:13:16.062Z,10.20
2022-11-29T12:15:46.507Z,10.35
2022-11-29T12:18:21.065Z,25.13
2022-11-29T12:21:11.700Z,15.93
2022-11-29T12:23:52.751Z,10.90
2022-11-29T12:26:55.316Z,10.88
2022-11-29T12:29:15.817Z,11.45
2022-11-29T12:31:55.103Z,10.52
2022-11-29T12:34:43.755Z,15.73
2022-11-29T12:37:41.487Z,12.98
2022-11-29T12:40:24.762Z,11.05
2022-11-29T12:43:00.212Z,10.35
2022-11-29T12:45:58.581Z,8.77
2022-11-29T12:48:54.906Z,9.43
2022-11-29T12:51:55.490Z,10.48
2022-11-29T12:54:41.581Z,8.88
2022-11-29T12:57:26.633Z,10.07
2022-11-29T13:00:16.586Z,9.57
2022-11-29T13:03:28.077Z,9.40
2022-11-29T13:06:28.519Z,10.50
2022-11-29T13:09:30.372Z,8.98
2022-11-29T13:12:10.558Z,10.25
2022-11-29T13:14:55.916Z,9.18
2022-11-29T13:17:25.454Z,10.77
2022-11-29T13:20:10.542Z,9.98
2022-11-29T13:22:48.150Z,11.13
2022-11-29T13:25:23.014Z,10.30
2022-11-29T13:28:07.225Z,11.18
2022-11-29T13:30:35.166Z,13.63
2022-11-29T13:33:05.675Z,16.98
2022-11-29T13:35:40.409Z,20.17
2022-11-29T13:38:23.457Z,17.00
2022-11-29T13:40:56.011Z,15.90
2022-11-29T13:43:45.569Z,14.00
2022-11-29T13:46:37.026Z,18.58
2022-11-29T13:49:03.581Z,21.15
2022-11-29T13:51:40.542Z,17.65
2022-11-29T13:54:28.572Z,20.02
2022-11-29T13:57:09.641Z,19.38
2022-11-29T13:59:44.253Z,19.00
2022-11-29T14:02:32.193Z,16.38
2022-11-29T14:04:59.251Z,17.20
2022-11-29T14:07:26.657Z,18.30
2022-11-29T14:10:06.997Z,15.48
2022-11-29T14:12:52.459Z,15.32
2022-11-29T14:15:31.214Z,18.23
2022-11-29T14:18:01.255Z,17.23
2022-11-29T14:20:28.852Z,14.13
2022-11-29T14:23:04.593Z,15.73
2022-11-29T14:25:52.301Z,16.95
2022-11-29T14:28:22.313Z,17.02
2022-11-29T14:30:53.731Z,17.80
2022-11-29T14:33:49.053Z,15.50
2022-11-29T14:36:18.521Z,16.48
2022-11-29T14:38:51.455Z,19.35
2022-11-29T14:41:37.333Z,16.50
2022-11-29T14:44:14.146Z,14.57
2022-11-29T14:46:40.922Z,17.90
2022-11-29T14:49:25.313Z,16.70
2022-11-29T14:52:10.027Z,15.25
2022-11-29T14:55:10.838Z,14.75
2022-11-29T14:57:52.822Z,15.82
2022-11-29T15:00:34.797Z,14.85
2022-11-29T15:03:09.173Z,13.45
2022-11-29T15:05:39.091Z,13.48
2022-11-29T15:08:13.800Z,11.80
2022-11-29T15:10:44.581Z,11.85
2022-11-29T15:13:15.266Z,14.27
2022-11-29T15:16:05.762Z,12.13
2022-11-29T15:18:41.450Z,10.80
2022-11-29T15:22:03.923Z,17.13
2022-11-29T15:24:31.185Z,14.57
2022-11-29T15:26:59.813Z,15.93
2022-11-29T15:29:28.214Z,12.68
2022-11-29T15:31:58.412Z,14.20
2022-11-29T15:34:32.405Z,14.82
2022-11-29T15:36:59.987Z,16.75
2022-11-29T15:39:37.988Z,15.27
2022-11-29T15:42:11.973Z,26.02
2022-11-29T15:47:20.892Z,24.80
2022-11-29T15:49:47.798Z,23.17
2022-11-29T15:52:24.280Z,23.50
2022-11-29T15:54:59.290Z,19.98
2022-11-29T15:57:31.619Z,21.00
2022-11-29T16:00:04.367Z,19.67
2022-11-29T16:02:34.971Z,19.20
2022-11-29T16:05:31.722Z,20.38
2022-11-29T16:08:04.987Z,16.70
2022-11-29T16:10:43.647Z,22.60
2022-11-29T16:13:25.633Z,20.80
2022-11-29T16:16:06.889Z,18.75
2022-11-29T16:18:33.641Z,19.35
2022-11-29T16:21:02.472Z,35.35
2022-11-29T16:23:42.804Z,24.90
2022-11-29T16:26:23.748Z,24.17
2022-11-29T16:28:52.446Z,19.00
2022-11-29T16:31:21.570Z,20.27
2022-11-29T16:33:50.558Z,20.08
2022-11-29T16:36:24.384Z,21.73
2022-11-29T16:39:08.803Z,23.55
2022-11-29T16:41:38.972Z,23.10
2022-11-29T16:44:26.495Z,26.17
2022-11-29T16:47:30.419Z,22.60
2022-11-29T16:50:03.076Z,26.23
2022-11-29T16:52:33.902Z,25.20
2022-11-29T16:55:00.878Z,26.23
2022-11-29T16:57:28.811Z,30.20
2022-11-29T16:59:55.446Z,31.33
2022-11-29T17:02:22.506Z,31.33
2022-11-29T17:04:50.488Z,25.25
2022-11-29T17:07:28.116Z,23.92
2022-11-29T17:09:55.168Z,25.48
2022-11-29T17:12:22.211Z,26.83
2022-11-29T17:14:48.780Z,27.45
2022-11-29T17:17:16.693Z,29.13
2022-11-29T17:19:43.283Z,27.33
2022-11-29T17:22:10.267Z,21.38
2022-11-29T17:24:41.068Z,24.42
2022-11-29T17:27:09.991Z,28.55
2022-11-29T17:29:36.539Z,23.75
2022-11-29T17:32:03.308Z,21.33
2022-11-29T17:34:30.150Z,21.90
2022-11-29T17:36:57.507Z,26.60
2022-11-29T17:39:24.085Z,20.50
2022-11-29T17:41:50.759Z,22.48
2022-11-29T17:44:17.457Z,21.10
2022-11-29T17:46:44.006Z,21.90
2022-11-29T17:49:10.833Z,23.70
2022-11-29T17:51:54.302Z,23.52
2022-11-29T17:54:24.393Z,27.85
2022-11-29T17:56:51.901Z,21.60
2022-11-29T17:59:18.598Z,32.28
2022-11-29T18:01:47.198Z,25.52
2022-11-29T18:04:14.006Z,30.05
2022-11-29T18:06:41.124Z,28.70
2022-11-29T18:09:10.453Z,25.45
2022-11-29T18:11:46.988Z,30.23
2022-11-29T18:14:17.070Z,27.63
2022-11-29T18:16:45.394Z,29.73
2022-11-29T18:19:14.670Z,30.45
2022-11-29T18:21:41.214Z,34.35
2022-11-29T18:24:08.341Z,34.72
2022-11-29T18:26:36.605Z,34.53
2022-11-29T18:29:04.858Z,84.80
2022-11-29T18:31:34.097Z,34.78
2022-11-29T18:34:02.583Z,35.33
2022-11-29T18:36:31.996Z,33.75
2022-11-29T18:39:01.095Z,33.05
2022-11-29T18:41:29.521Z,33.25
2022-11-29T18:43:58.952Z,34.10
2022-11-29T18:46:26.428Z,36.83
2022-11-29T18:48:52.992Z,38.03
2022-11-29T18:51:20.704Z,39.17
2022-11-29T18:53:47.613Z,37.88
2022-11-29T18:56:22.328Z,33.65
2022-11-29T18:58:58.617Z,33.00
2022-11-29T19:01:27.629Z,41.63
2022-11-29T19:03:56.725Z,37.35
2022-11-29T19:06:25.777Z,33.03
2022-11-29T19:08:53.419Z,36.10
2022-11-29T19:11:23.011Z,45.67
2022-11-29T19:13:56.296Z,38.92
2022-11-29T19:16:24.450Z,36.17
2022-11-29T19:18:52.802Z,42.60
2022-11-29T19:21:20.854Z,38.17
2022-11-29T19:23:55.867Z,37.83
2022-11-29T19:26:25.152Z,38.97
2022-11-29T19:28:52.111Z,45.25
2022-11-29T19:31:20.419Z,39.90
2022-11-29T19:33:47.394Z,44.65
2022-11-29T19:36:19.943Z,48.05
2022-11-29T19:38:51.748Z,47.38
2022-11-29T19:43:47.462Z,46.33
2022-11-29T19:46:19.777Z,46.53
2022-11-29T19:48:47.493Z,49.72
2022-11-29T19:51:17.428Z,47.70
2022-11-29T19:53:44.906Z,56.72
2022-11-29T19:56:14.178Z,43.05
2022-11-29T19:58:40.979Z,45.40
2022-11-29T20:01:11.819Z,44.85
2022-11-29T20:03:38.803Z,47.10
2022-11-29T20:06:05.461Z,44.03
2022-11-29T20:08:32.215Z,44.90
2022-11-29T20:11:10.864Z,43.13
2022-11-29T20:13:38.773Z,41.03
2022-11-29T20:16:09.724Z,47.00
2022-11-29T20:18:39.248Z,43.60
2022-11-29T20:21:08.157Z,45.53
2022-11-29T20:23:34.978Z,47.30
2022-11-29T20:26:01.951Z,42.83
2022-11-29T20:28:28.531Z,36.83
2022-11-29T20:30:56.649Z,42.55
2022-11-29T20:33:25.047Z,43.20
2022-11-29T20:36:06.665Z,43.03
2022-11-29T20:38:49.135Z,45.60
2022-11-29T20:41:24.836Z,44.15
2022-11-29T20:43:56.670Z,45.85
2022-11-29T20:46:25.587Z,40.53
2022-11-29T20:48:57.194Z,47.30
2022-11-29T20:53:59.394Z,46.88
2022-11-29T20:56:27.476Z,48.58
2022-11-29T20:58:54.501Z,44.60
2022-11-29T21:01:21.023Z,44.78
2022-11-29T21:03:47.569Z,45.67
2022-11-29T21:06:14.128Z,47.55
2022-11-29T21:08:40.707Z,49.65
2022-11-29T21:11:10.290Z,49.10
2022-11-29T21:13:37.135Z,54.22
2022-11-29T21:16:04.663Z,73.80
2022-11-29T21:18:32.304Z,63.97
2022-11-29T21:21:24.660Z,48.10
2022-11-29T21:24:06.693Z,62.67
2022-11-29T21:26:41.925Z,58.40
2022-11-29T21:29:12.590Z,75.90
2022-11-29T21:31:39.543Z,56.33
2022-11-29T21:34:06.172Z,50.92
2022-11-29T21:36:32.660Z,53.45
2022-11-29T21:39:03.569Z,56.08
2022-11-29T21:41:31.588Z,57.00
2022-11-29T21:44:06.676Z,49.08
2022-11-29T21:46:34.754Z,60.45
2022-11-29T21:49:01.279Z,49.05
2022-11-29T21:51:27.762Z,52.28
2022-11-29T21:53:54.313Z,54.30
2022-11-29T21:56:20.893Z,53.72
2022-11-29T21:58:47.380Z,47.67
2022-11-29T22:01:19.013Z,49.00
2022-11-29T22:03:46.054Z,51.33
2022-11-29T22:06:20.484Z,54.03
2022-11-29T22:08:48.168Z,49.40
2022-11-29T22:11:30.389Z,50.15
2022-11-29T22:14:18.330Z,52.85
2022-11-29T22:16:51.997Z,48.17
2022-11-29T22:19:29.249Z,52.28
2022-11-29T22:22:00.995Z,48.50
2022-11-29T22:24:33.687Z,52.20
2022-11-29T22:27:01.590Z,56.80
2022-11-29T22:29:29.256Z,50.00
2022-11-29T22:31:57.480Z,49.92
2022-11-29T22:34:26.621Z,56.65
2022-11-29T22:36:53.331Z,54.75
2022-11-29T22:39:19.855Z,58.40
2022-11-29T22:41:52.263Z,56.25
2022-11-29T22:46:47.061Z,55.00
2022-11-29T22:49:13.747Z,55.67
2022-11-29T22:51:40.420Z,57.05
2022-11-29T22:54:08.962Z,51.58
2022-11-29T22:56:38.529Z,49.58
2022-11-29T22:59:05.396Z,52.17
2022-11-29T23:01:34.840Z,54.33
2022-11-29T23:04:04.033Z,58.70
2022-11-29T23:06:33.119Z,49.78
2022-11-29T23:09:05.294Z,49.72
2022-11-29T23:11:31.851Z,50.75
2022-11-29T23:14:00.049Z,47.80
2022-11-29T23:16:28.488Z,45.83
2022-11-29T23:18:58.077Z,46.40
2022-11-29T23:21:33.296Z,46.72
2022-11-29T23:24:00.936Z,50.08
2022-11-29T23:26:33.890Z,46.55
2022-11-29T23:29:00.442Z,50.65
2022-11-29T23:31:27.124Z,48.53
2022-11-29T23:33:53.928Z,45.60
2022-11-29T23:36:20.754Z,47.47
2022-11-29T23:38:48.348Z,46.63
2022-11-29T23:41:14.901Z,60.75
2022-11-29T23:43:41.908Z,53.70
2022-11-29T23:46:12.201Z,55.70
2022-11-29T23:48:38.937Z,54.30
2022-11-29T23:51:05.509Z,54.80
2022-11-29T23:53:32.880Z,49.50
2022-11-29T23:56:01.604Z,44.30
2022-11-29T23:58:29.324Z,47.97
